Pitts, GA

10:43 AM EST on February 11, 2016 (GMT -0500)
Crisp County-Cordele | | Change Station
CLOSE
Current Station
Airport
Location: Crisp Cnty-Cordele AP, Cordel,
Elevation: 308 ft
Nearby Weather Stations
Active Advisory: Flood Warning

Elev 308 ft 31.99 °N, 83.77 °W | Updated 8 minutes ago

Clear
Clear
53 °F
Feels Like 53 °F
N
9
Wind Variable Wind from WSW

Today
High -- | Low -- °F
--% Chance of Precip.
Yesterday
High -- | Low -- °F
Precip. -- in
Pressure 30.24 in
Visibility 10.0 miles
Clouds Clear
Dew Point 32 °F
Humidity 46%
Rainfall 0.00 in
Snow Depth Not available.
7:20 AM 6:17 PM
Waxing Crescent, 12% visible
METAR KCKF 111535Z AUTO 24008KT 10SM CLR 12/00 A3024 RMK AO2 T01150001
Pressure 30.24 in
Visibility 10.0 miles
Clouds Clear
Dew Point 32 °F
Humidity 46%
Rainfall 0.00 in
Snow Depth Not available.
7:20 AM 6:17 PM
Waxing Crescent, 12% visible
METAR KCKF 111535Z AUTO 24008KT 10SM CLR 12/00 A3024 RMK AO2 T01150001

10-Day Weather Forecast

Almanac

Astronomy

Feb. 11, 2016 Rise Set
Actual Time
Civil Twilight
Nautical Twilight
Astronomical Twilight
Moon
Length of Visible Light
Length of Day
Tomorrow will be .
, % of the Moon is Illuminated

Today's Extremes

State Highs State Lows

Community

WunderPhotos

Upload Photos

1,892,081 photos uploaded!

WunderBlog® & News

Nearby

Air Quality

  Air Quality AQ Index Pollutant
Not available.

Snow Depth

Station Depth Elevation

Earthquake Activity

City Distance Mag. Time & Date
Minimum magnitude displayed is 2.5.

Coastal Water Temperatures

Place Temperature

Stations

Nearby Weather Stations

Station Location Temp. Windchill Dew Point Humidity Wind Precip. Elev Updated Type
                   

Watches & Warnings

Flood Warning
Issued: 5:06 AM EST Feb. 11, 2016 – National Weather Service

The Flood Warning continues for
the Ocmulgee River near Abbeville.
* From this morning until late tonight.
* At 4am Thursday the stage was 12.0 feet... and
steady.
* Minor flooding is forecast.
* Flood stage is 12.0 feet.
* At 12.0 feet... flood stage is reached. Minor flooding of lowlands
adjacent to the river begins. The water level reaches the top of
the Abbeville boat ramp and also begins to flood the nearby park.



Lat... Lon 3206 8337 3210 8332 3188 8315 3181 8299
      3175 8299 3184 8320